createdAt,value
2022-12-01T00:01:53.743Z,89.08
2022-12-01T00:04:25.964Z,89.50
2022-12-01T00:06:54.084Z,89.71
2022-12-01T01:50:49.878Z,88.39
2022-12-01T01:53:45.044Z,88.08
2022-12-01T01:56:13.379Z,88.02
2022-12-01T01:58:42.654Z,88.15
2022-12-01T02:01:11.060Z,88.23
2022-12-01T02:03:42.341Z,88.07
2022-12-01T02:06:12.172Z,87.90
2022-12-01T02:08:43.797Z,87.97
2022-12-01T02:15:56.303Z,88.26
2022-12-01T02:24:49.714Z,88.49
2022-12-01T02:27:36.599Z,88.56
2022-12-01T02:48:03.095Z,90.90
2022-12-01T02:50:35.256Z,90.69
2022-12-01T02:53:04.580Z,90.74
2022-12-01T02:55:33.820Z,90.89
2022-12-01T02:58:02.121Z,92.29
2022-12-01T03:06:39.603Z,92.31
2022-12-01T03:09:31.095Z,91.86
2022-12-01T03:12:08.423Z,92.17
2022-12-01T03:14:49.360Z,91.70
2022-12-01T03:32:44.179Z,92.09
2022-12-01T03:35:19.766Z,92.19
2022-12-01T03:37:59.502Z,91.93
2022-12-01T03:40:31.186Z,92.02
2022-12-01T03:43:03.731Z,92.24
2022-12-01T03:45:41.061Z,92.60
2022-12-01T03:48:09.105Z,92.73
2022-12-01T03:51:01.126Z,92.74
2022-12-01T03:53:35.593Z,93.01
2022-12-01T03:56:07.318Z,92.82
2022-12-01T03:58:40.891Z,93.09
2022-12-01T04:01:09.575Z,93.14
2022-12-01T04:04:08.098Z,92.93
2022-12-01T04:22:13.530Z,92.53
2022-12-01T04:24:42.137Z,92.31
2022-12-01T04:27:10.205Z,91.97
2022-12-01T04:29:38.225Z,92.23
2022-12-01T04:32:06.551Z,92.39
2022-12-01T04:34:34.696Z,92.29
2022-12-01T04:37:03.774Z,91.78
2022-12-01T04:39:31.983Z,91.47
2022-12-01T04:42:00.129Z,91.61
2022-12-01T04:44:34.282Z,91.81
2022-12-01T04:47:04.259Z,91.61
2022-12-01T04:49:33.451Z,91.48
2022-12-01T04:52:01.551Z,91.54
2022-12-01T04:54:29.775Z,91.67
2022-12-01T04:56:57.757Z,91.73
2022-12-01T04:59:25.831Z,91.78
2022-12-01T05:01:53.954Z,91.47
2022-12-01T05:04:22.208Z,91.42
2022-12-01T05:06:50.399Z,91.62
2022-12-01T05:09:21.102Z,91.33
2022-12-01T05:11:49.431Z,91.49
2022-12-01T05:14:17.498Z,91.51
2022-12-01T05:16:45.707Z,91.47
2022-12-01T05:23:21.054Z,91.49
2022-12-01T05:25:48.899Z,91.37
2022-12-01T05:28:16.880Z,91.22
2022-12-01T05:30:44.927Z,91.30
2022-12-01T05:33:13.019Z,91.35
2022-12-01T05:35:41.295Z,91.31
2022-12-01T05:38:09.300Z,91.30
2022-12-01T05:40:38.331Z,91.31
2022-12-01T05:43:07.605Z,91.37
2022-12-01T05:45:38.915Z,91.35
2022-12-01T05:48:06.929Z,91.34
2022-12-01T05:50:38.644Z,91.46
2022-12-01T05:53:08.018Z,91.73
2022-12-01T05:55:36.061Z,91.69
2022-12-01T05:58:04.090Z,92.01
2022-12-01T06:00:31.998Z,92.12
2022-12-01T06:02:59.995Z,92.22
2022-12-01T06:05:28.711Z,92.58
2022-12-01T06:07:56.743Z,92.66
2022-12-01T06:10:24.657Z,92.58
2022-12-01T06:12:52.678Z,92.61
2022-12-01T06:15:20.667Z,92.69
2022-12-01T06:17:48.663Z,92.79
2022-12-01T06:20:16.784Z,92.76
2022-12-01T06:22:44.803Z,92.90
2022-12-01T06:25:12.821Z,92.84
2022-12-01T06:27:40.838Z,92.73
2022-12-01T06:30:09.469Z,92.84
2022-12-01T06:32:38.217Z,92.83
2022-12-01T06:35:06.667Z,92.86
2022-12-01T06:37:34.636Z,92.97
2022-12-01T06:40:02.546Z,93.06
2022-12-01T06:42:32.243Z,92.92
2022-12-01T06:45:00.206Z,93.65
2022-12-01T06:47:28.178Z,94.04
2022-12-01T06:49:56.139Z,93.94
2022-12-01T06:52:24.030Z,93.72
2022-12-01T06:54:52.023Z,94.06
2022-12-01T06:57:20.428Z,94.41
2022-12-01T06:59:48.959Z,94.34
2022-12-01T07:02:17.617Z,94.13
2022-12-01T07:04:45.646Z,94.03
2022-12-01T07:07:13.709Z,94.08
2022-12-01T07:09:41.628Z,93.94
2022-12-01T07:12:09.671Z,93.61
2022-12-01T07:14:37.940Z,93.31
2022-12-01T07:17:05.873Z,93.17
2022-12-01T07:19:33.927Z,93.14
2022-12-01T07:22:02.302Z,92.97
2022-12-01T07:24:31.174Z,92.79
2022-12-01T07:26:59.182Z,92.52
2022-12-01T07:29:27.099Z,91.96
2022-12-01T07:31:55.643Z,91.65
2022-12-01T07:34:23.593Z,90.36
2022-12-01T07:36:51.550Z,89.53
2022-12-01T07:39:19.626Z,90.14
2022-12-01T07:41:47.611Z,90.32
2022-12-01T07:44:15.692Z,90.18
2022-12-01T07:46:43.698Z,90.46
2022-12-01T07:49:15.000Z,90.41
2022-12-01T07:51:42.981Z,89.52
2022-12-01T07:54:14.311Z,89.11
2022-12-01T07:56:42.478Z,89.14
2022-12-01T07:59:12.056Z,89.50
2022-12-01T08:01:44.243Z,89.04
2022-12-01T08:04:12.774Z,88.03
2022-12-01T08:06:40.765Z,87.21
2022-12-01T08:09:08.652Z,86.91
2022-12-01T08:11:36.781Z,86.53
2022-12-01T08:14:04.973Z,86.04
2022-12-01T08:16:32.970Z,86.19
2022-12-01T08:19:01.764Z,86.33
2022-12-01T08:21:29.673Z,86.80
2022-12-01T08:23:58.565Z,87.09
2022-12-01T08:26:27.729Z,86.32
2022-12-01T08:28:55.942Z,86.41
2022-12-01T08:31:29.874Z,86.77
2022-12-01T08:33:58.197Z,86.98
2022-12-01T08:36:26.381Z,85.80
2022-12-01T08:38:55.966Z,85.48
2022-12-01T08:41:25.229Z,84.67
2022-12-01T08:43:58.262Z,84.33
2022-12-01T08:46:29.251Z,84.44
2022-12-01T08:48:57.532Z,83.53
2022-12-01T08:51:26.975Z,83.68
2022-12-01T08:53:56.464Z,84.06
2022-12-01T08:56:37.200Z,83.95
2022-12-01T08:59:05.510Z,83.30
2022-12-01T09:01:34.076Z,83.07
2022-12-01T09:04:06.322Z,83.00
2022-12-01T09:06:40.633Z,83.50
2022-12-01T09:09:14.602Z,83.79
2022-12-01T09:11:46.063Z,83.17
2022-12-01T09:14:15.553Z,81.69
2022-12-01T09:16:45.469Z,81.09
2022-12-01T09:19:19.203Z,80.73
2022-12-01T09:21:51.682Z,80.79
2022-12-01T09:24:19.694Z,80.85
2022-12-01T09:26:47.633Z,81.23
2022-12-01T09:29:16.903Z,81.65
2022-12-01T09:31:45.078Z,80.82
2022-12-01T09:34:19.231Z,79.97
2022-12-01T09:36:47.965Z,80.02
2022-12-01T09:39:20.907Z,80.34
2022-12-01T09:42:06.155Z,80.87
2022-12-01T09:44:49.160Z,80.92
2022-12-01T09:47:22.353Z,80.43
2022-12-01T09:50:07.819Z,80.19
2022-12-01T09:52:44.820Z,80.32
2022-12-01T09:55:15.364Z,80.00
2022-12-01T09:57:46.954Z,80.24
2022-12-01T10:00:18.550Z,79.40
2022-12-01T10:02:55.858Z,78.69
2022-12-01T10:05:29.587Z,78.65
2022-12-01T10:08:04.897Z,78.67
2022-12-01T10:11:04.435Z,78.36
2022-12-01T10:13:33.414Z,77.10
2022-12-01T10:16:12.892Z,77.22
2022-12-01T10:18:54.479Z,76.81
2022-12-01T10:21:28.412Z,77.45
2022-12-01T10:24:30.490Z,76.31
2022-12-01T10:27:08.653Z,75.14
2022-12-01T10:29:48.057Z,74.38
2022-12-01T10:32:23.857Z,72.67
2022-12-01T10:34:52.025Z,73.52
2022-12-01T10:37:29.149Z,72.26
2022-12-01T10:39:58.616Z,72.57
2022-12-01T10:42:29.513Z,71.76
2022-12-01T10:45:01.966Z,72.58
2022-12-01T10:47:31.604Z,71.21
2022-12-01T10:49:59.594Z,70.00
2022-12-01T10:52:36.765Z,69.15
2022-12-01T10:55:26.974Z,69.43
2022-12-01T10:57:57.857Z,69.84
2022-12-01T11:03:30.384Z,70.07
2022-12-01T11:06:01.923Z,69.60
2022-12-01T11:08:53.896Z,68.09
2022-12-01T11:11:33.016Z,68.49
2022-12-01T11:14:06.155Z,67.63
2022-12-01T11:16:35.792Z,67.81
2022-12-01T11:19:14.480Z,68.24
2022-12-01T11:21:51.368Z,67.47
2022-12-01T11:24:28.054Z,68.14
2022-12-01T11:26:58.655Z,68.01
2022-12-01T11:29:32.167Z,66.84
2022-12-01T11:32:01.801Z,65.99
2022-12-01T11:34:34.574Z,66.88
2022-12-01T11:37:07.875Z,67.36
2022-12-01T11:39:41.777Z,66.55
2022-12-01T11:42:31.330Z,66.17
2022-12-01T11:45:21.229Z,64.94
2022-12-01T11:48:06.474Z,65.01
2022-12-01T11:50:37.871Z,65.09
2022-12-01T11:53:33.691Z,64.04
2022-12-01T11:56:23.633Z,62.80
2022-12-01T11:59:10.607Z,62.02
2022-12-01T12:02:20.737Z,62.38
2022-12-01T12:05:04.263Z,61.66
2022-12-01T12:07:48.517Z,58.73
2022-12-01T12:10:56.937Z,60.24
2022-12-01T12:14:10.117Z,60.05
2022-12-01T12:16:44.383Z,59.59
2022-12-01T12:19:18.603Z,59.18
2022-12-01T12:22:18.198Z,58.73
2022-12-01T12:25:27.951Z,58.63
2022-12-01T12:28:18.194Z,57.49
2022-12-01T12:31:24.640Z,57.28
2022-12-01T12:34:15.178Z,58.52
2022-12-01T12:37:07.873Z,58.75
2022-12-01T12:40:07.271Z,58.48
2022-12-01T12:42:53.540Z,58.20
2022-12-01T12:45:32.499Z,58.77
2022-12-01T12:48:21.785Z,59.51
2022-12-01T12:51:13.564Z,60.15
2022-12-01T12:54:11.905Z,60.97
2022-12-01T12:56:46.308Z,60.58
2022-12-01T12:59:33.817Z,60.54
2022-12-01T13:02:15.981Z,61.39
2022-12-01T13:05:10.433Z,61.58
2022-12-01T13:07:46.461Z,61.27
2022-12-01T13:10:41.143Z,61.66
2022-12-01T13:13:32.286Z,62.21
2022-12-01T13:16:03.058Z,62.49
2022-12-01T13:18:49.826Z,63.05
2022-12-01T13:21:21.408Z,63.68
2022-12-01T13:23:52.324Z,64.18
2022-12-01T13:26:21.727Z,64.98
2022-12-01T13:28:56.258Z,65.10
2022-12-01T13:31:24.528Z,65.51
2022-12-01T13:34:01.919Z,66.06
2022-12-01T13:36:46.763Z,66.70
2022-12-01T13:39:24.682Z,67.16
2022-12-01T13:42:20.542Z,67.56
2022-12-01T13:44:57.288Z,68.09
2022-12-01T13:47:57.687Z,68.34
2022-12-01T13:50:43.207Z,68.82
2022-12-01T13:53:25.255Z,68.94
2022-12-01T13:56:23.584Z,68.84
2022-12-01T13:58:54.310Z,69.04
2022-12-01T14:01:22.912Z,69.25
2022-12-01T14:04:03.766Z,69.03
2022-12-01T14:06:53.146Z,68.98
2022-12-01T14:09:31.848Z,68.45
2022-12-01T14:12:06.682Z,68.68
2022-12-01T14:14:42.113Z,69.27
2022-12-01T14:17:25.000Z,69.60
2022-12-01T14:19:54.143Z,70.12
2022-12-01T14:22:34.285Z,70.29
2022-12-01T14:25:07.746Z,70.55
2022-12-01T14:27:43.898Z,70.76
2022-12-01T14:30:41.390Z,71.02
2022-12-01T14:33:37.408Z,71.26
2022-12-01T14:44:36.522Z,71.95
2022-12-01T14:47:04.744Z,71.97
2022-12-01T14:50:15.047Z,72.12
2022-12-01T14:53:04.003Z,71.86
2022-12-01T14:55:40.238Z,71.76
2022-12-01T14:58:16.973Z,71.69
2022-12-01T15:01:14.355Z,72.15
2022-12-01T15:03:49.121Z,73.02
2022-12-01T15:06:28.772Z,73.36
2022-12-01T15:09:31.990Z,73.63
2022-12-01T15:12:02.294Z,73.79
2022-12-01T15:14:34.782Z,73.95
2022-12-01T15:17:05.426Z,74.23
2022-12-01T15:19:38.588Z,74.43
2022-12-01T15:22:14.043Z,74.46
2022-12-01T15:24:43.077Z,74.11
2022-12-01T15:27:31.282Z,74.02
2022-12-01T15:30:04.840Z,74.40
2022-12-01T15:32:39.449Z,74.59
2022-12-01T15:35:20.133Z,74.66
2022-12-01T15:37:49.254Z,74.66
2022-12-01T15:43:17.761Z,75.07
2022-12-01T15:45:55.440Z,75.25
2022-12-01T15:48:35.429Z,75.37
2022-12-01T15:51:18.678Z,75.42
2022-12-01T15:53:59.180Z,75.41
2022-12-01T15:56:30.939Z,75.45
2022-12-01T15:59:14.151Z,75.40
2022-12-01T16:01:44.292Z,75.52
2022-12-01T16:04:25.223Z,75.56
2022-12-01T16:07:05.055Z,75.63
2022-12-01T16:09:37.195Z,75.62
2022-12-01T16:12:21.999Z,75.64
2022-12-01T16:15:08.543Z,75.70
2022-12-01T16:17:48.746Z,75.69
2022-12-01T16:20:17.619Z,75.49
2022-12-01T16:22:47.896Z,75.72
2022-12-01T16:25:31.523Z,75.52
2022-12-01T16:28:00.665Z,75.50
2022-12-01T16:30:38.524Z,75.51
2022-12-01T16:33:17.930Z,75.54
2022-12-01T16:35:45.988Z,75.61
2022-12-01T16:38:20.368Z,75.51
2022-12-01T16:41:00.388Z,75.60
2022-12-01T16:43:29.737Z,75.22
2022-12-01T16:46:00.524Z,75.18
2022-12-01T16:48:28.885Z,75.02
2022-12-01T16:50:57.479Z,74.62
2022-12-01T16:53:25.393Z,74.69
2022-12-01T16:55:56.054Z,74.78
2022-12-01T16:58:24.541Z,74.49
2022-12-01T17:00:53.405Z,73.88
2022-12-01T17:03:24.134Z,73.60
2022-12-01T17:05:52.961Z,73.69
2022-12-01T17:08:21.762Z,73.69
2022-12-01T17:10:51.171Z,73.53
2022-12-01T17:13:24.507Z,73.80
2022-12-01T17:15:54.849Z,73.92
2022-12-01T17:18:24.106Z,73.94
2022-12-01T17:21:04.308Z,74.12
2022-12-01T17:23:33.494Z,74.16
2022-12-01T17:26:01.533Z,74.55
2022-12-01T17:28:29.424Z,74.85
2022-12-01T17:31:00.837Z,75.14
2022-12-01T17:33:29.705Z,75.26
2022-12-01T17:36:03.370Z,75.16
2022-12-01T17:38:33.913Z,75.10
2022-12-01T17:41:05.321Z,75.35
2022-12-01T17:43:35.325Z,75.34
2022-12-01T17:46:05.828Z,75.30
2022-12-01T17:48:42.402Z,75.79
2022-12-01T17:51:11.502Z,76.26
2022-12-01T17:53:40.384Z,76.58
2022-12-01T17:56:10.398Z,77.15
2022-12-01T17:58:38.842Z,77.86
2022-12-01T18:01:14.506Z,78.28
2022-12-01T18:03:42.812Z,78.01
2022-12-01T18:06:13.021Z,78.46
2022-12-01T18:08:41.942Z,78.52
2022-12-01T18:11:12.874Z,78.71
2022-12-01T18:13:43.970Z,78.80
2022-12-01T18:16:18.886Z,78.81
2022-12-01T18:18:46.895Z,78.98
2022-12-01T18:21:17.718Z,79.17
2022-12-01T18:23:50.938Z,79.33
2022-12-01T18:26:21.949Z,79.52
2022-12-01T18:28:57.501Z,79.59
2022-12-01T18:31:25.757Z,79.60
2022-12-01T18:33:54.295Z,79.80
2022-12-01T18:36:24.362Z,79.71
2022-12-01T18:38:54.622Z,79.70
2022-12-01T18:41:22.611Z,79.89
2022-12-01T18:43:51.467Z,79.93
2022-12-01T18:46:21.013Z,80.43
2022-12-01T18:48:51.678Z,80.35
2022-12-01T18:51:21.172Z,80.64
2022-12-01T18:53:54.412Z,80.90
2022-12-01T18:56:22.514Z,81.08
2022-12-01T18:59:11.155Z,81.16
2022-12-01T19:01:43.825Z,81.17
2022-12-01T19:04:12.408Z,81.24
2022-12-01T19:06:42.682Z,80.78
2022-12-01T19:09:12.638Z,80.76
2022-12-01T19:11:41.643Z,80.96
2022-12-01T19:14:18.823Z,81.19
2022-12-01T19:16:47.407Z,81.22
2022-12-01T19:19:16.265Z,81.02
2022-12-01T19:21:45.321Z,80.99
2022-12-01T19:24:13.500Z,80.85
2022-12-01T19:26:41.506Z,80.81
2022-12-01T19:29:09.508Z,80.59
2022-12-01T19:31:37.687Z,80.53
2022-12-01T19:34:05.740Z,80.51
2022-12-01T19:36:33.671Z,80.41
2022-12-01T19:39:04.458Z,80.40
2022-12-01T19:41:38.760Z,80.38
2022-12-01T19:44:07.358Z,80.45
2022-12-01T19:46:35.332Z,80.44
2022-12-01T19:49:04.213Z,80.15
2022-12-01T19:51:37.506Z,79.98
2022-12-01T19:54:08.561Z,80.25
2022-12-01T19:56:36.465Z,80.26
2022-12-01T19:59:07.039Z,80.21
2022-12-01T20:01:35.088Z,80.52
2022-12-01T20:04:04.120Z,80.46
2022-12-01T20:06:34.092Z,80.68
2022-12-01T20:09:04.491Z,80.86
2022-12-01T20:11:35.537Z,80.90
2022-12-01T20:14:07.551Z,80.92
2022-12-01T20:16:35.682Z,80.94
2022-12-01T20:19:05.202Z,81.04
2022-12-01T20:21:35.463Z,81.33
2022-12-01T20:24:06.617Z,81.67
2022-12-01T20:26:39.385Z,81.81
2022-12-01T20:29:13.227Z,81.88
2022-12-01T20:31:42.337Z,81.97
2022-12-01T20:34:16.717Z,82.23
2022-12-01T20:36:44.876Z,82.29
2022-12-01T20:39:14.028Z,82.40
2022-12-01T20:41:43.151Z,82.43
2022-12-01T20:44:12.378Z,82.40
2022-12-01T20:46:45.331Z,82.45
2022-12-01T20:49:15.443Z,82.43
2022-12-01T20:51:43.328Z,82.35
2022-12-01T20:54:30.239Z,82.42
2022-12-01T20:56:59.149Z,82.51
2022-12-01T20:59:27.833Z,82.77
2022-12-01T21:01:55.918Z,82.75
2022-12-01T21:04:23.917Z,83.01
2022-12-01T21:06:56.041Z,83.04
2022-12-01T21:09:24.523Z,83.35
2022-12-01T21:12:11.568Z,83.39
2022-12-01T21:14:42.595Z,83.72
2022-12-01T21:17:33.200Z,84.34
2022-12-01T21:20:39.372Z,84.16
2022-12-01T21:23:14.558Z,84.35
2022-12-01T21:25:43.816Z,84.53
2022-12-01T21:28:25.929Z,84.68
2022-12-01T21:31:07.893Z,84.69
2022-12-01T21:33:37.278Z,84.80
2022-12-01T21:36:28.902Z,84.81
2022-12-01T21:39:09.774Z,84.93
2022-12-01T21:41:38.044Z,84.85
2022-12-01T21:44:21.231Z,84.99
2022-12-01T21:46:56.062Z,85.28
2022-12-01T21:49:35.636Z,85.36
2022-12-01T21:52:12.162Z,85.14
2022-12-01T21:54:40.237Z,85.26
2022-12-01T21:57:26.447Z,85.32
2022-12-01T21:59:58.823Z,85.34
2022-12-01T22:02:49.620Z,85.37
2022-12-01T22:05:31.521Z,85.50
2022-12-01T22:08:23.253Z,85.57
2022-12-01T22:11:13.090Z,85.55
2022-12-01T22:13:45.360Z,85.50
2022-12-01T22:16:25.993Z,85.54
2022-12-01T22:18:56.661Z,85.42
2022-12-01T22:21:30.474Z,85.48
2022-12-01T22:24:10.586Z,85.42
2022-12-01T22:26:46.287Z,85.58
2022-12-01T22:29:31.201Z,85.83
2022-12-01T22:32:48.568Z,86.00
2022-12-01T22:35:55.209Z,85.82
2022-12-01T22:38:25.855Z,85.96
2022-12-01T22:41:19.970Z,86.20
2022-12-01T22:44:01.907Z,86.08
2022-12-01T22:46:36.083Z,85.75
2022-12-01T22:49:10.199Z,85.67
2022-12-01T22:52:14.208Z,85.37
2022-12-01T22:54:49.231Z,85.06
2022-12-01T22:57:33.457Z,84.97
2022-12-01T23:00:14.141Z,85.07
2022-12-01T23:02:42.213Z,84.84
2022-12-01T23:05:23.044Z,84.86
2022-12-01T23:07:52.177Z,84.72
2022-12-01T23:10:22.280Z,84.53
2022-12-01T23:12:53.131Z,84.51
2022-12-01T23:15:27.353Z,84.66
2022-12-01T23:17:55.479Z,84.80
2022-12-01T23:20:33.109Z,84.82
2022-12-01T23:23:04.792Z,84.92
2022-12-01T23:25:34.632Z,84.99
2022-12-01T23:28:08.294Z,85.19
2022-12-01T23:30:39.121Z,85.28
2022-12-01T23:33:15.426Z,85.44
2022-12-01T23:35:57.625Z,85.55
2022-12-01T23:38:37.552Z,85.55
2022-12-01T23:41:10.890Z,85.70
2022-12-01T23:43:42.439Z,85.86
2022-12-01T23:46:16.816Z,85.69
2022-12-01T23:48:56.501Z,86.09
2022-12-01T23:51:29.944Z,86.05
2022-12-01T23:54:00.870Z,86.16
2022-12-01T23:56:31.688Z,86.20
2022-12-01T23:59:01.239Z,86.38
